Time;durP1;ratioP1;P1;durP2;ratioP2;P2;SDS_P1;SDS_P2;PMS_P1;PMS_P2;Temp;Humidity;BMP_temperature;BMP_pressure;BME280_temperature;BME280_humidity;BME280_pressure;Samples;Min_cycle;Max_cycle;Signal;HPM_P1;HPM_P2
2022/02/06 00:01:47;;;;;;;3.15;0.98;;;8.20;92.60;;;;;;5057413;28;20160;-49
2022/02/06 00:04:13;;;;;;;3.25;1.50;;;8.20;92.40;;;;;;5060819;28;20123;-49
2022/02/06 00:06:39;;;;;;;4.90;1.55;;;8.20;92.50;;;;;;5059056;28;20439;-48
2022/02/06 00:09:04;;;;;;;0.40;0.40;;;8.20;92.70;;;;;;5062514;28;20275;-48
2022/02/06 00:11:30;;;;;;;3.13;1.92;;;8.20;92.70;;;;;;5063017;28;20028;-48
2022/02/06 00:13:56;;;;;;;3.20;1.30;;;8.20;92.60;;;;;;5060160;28;20016;-48
2022/02/06 00:16:22;;;;;;;7.80;2.05;;;8.20;92.60;;;;;;5063047;28;20029;-49
2022/02/06 00:18:48;;;;;;;1.27;0.95;;;8.20;92.70;;;;;;5062201;28;20469;-48
2022/02/06 00:21:17;;;;;;;1.27;1.17;;;8.20;92.60;;;;;;5063237;28;20032;-48
2022/02/06 00:23:45;;;;;;;4.75;1.13;;;8.20;92.60;;;;;;5057551;28;20059;-48
2022/02/06 00:26:26;;;;;;;1.95;1.25;;;8.20;92.70;;;;;;5064414;28;20029;-48
2022/02/06 00:31:50;;;;;;;1.75;0.85;;;8.20;92.60;;;;;;5063389;28;20572;-49
2022/02/06 00:34:44;;;;;;;;;;;8.20;92.70;;;;;;5061059;28;20044;-48
2022/02/06 00:39:47;;;;;;;5.28;1.00;;;8.20;92.60;;;;;;5061604;28;20031;-49
2022/02/06 00:42:12;;;;;;;3.25;1.15;;;8.20;92.60;;;;;;5062033;28;20051;-48
2022/02/06 00:44:38;;;;;;;1.30;1.10;;;8.20;92.60;;;;;;5060293;28;20365;-49
2022/02/06 00:47:04;;;;;;;2.30;1.10;;;8.20;92.60;;;;;;5063849;28;20098;-48
2022/02/06 00:49:31;;;;;;;4.05;1.00;;;8.20;92.80;;;;;;5062961;28;20555;-48
2022/02/06 00:52:10;;;;;;;0.82;0.82;;;8.20;92.60;;;;;;5059574;28;20029;-49
2022/02/06 00:54:36;;;;;;;2.47;1.25;;;8.20;92.60;;;;;;5058074;28;20021;-48
2022/02/06 00:57:02;;;;;;;1.50;0.90;;;8.20;92.70;;;;;;5059805;28;20028;-48
2022/02/06 00:59:27;;;;;;;1.88;1.00;;;8.20;92.70;;;;;;5062805;28;20401;-48
2022/02/06 01:01:53;;;;;;;4.68;1.10;;;8.20;92.70;;;;;;5056923;28;20305;-48
2022/02/06 01:04:19;;;;;;;1.40;1.15;;;8.20;92.60;;;;;;5061848;28;20076;-48
2022/02/06 01:06:46;;;;;;;6.25;1.55;;;8.20;92.70;;;;;;5059575;28;20403;-48
2022/02/06 01:09:12;;;;;;;1.20;0.95;;;8.20;92.70;;;;;;5059657;28;20028;-48
2022/02/06 01:11:39;;;;;;;2.53;1.08;;;8.20;92.50;;;;;;5062226;28;20031;-48
2022/02/06 01:16:36;;;;;;;7.47;1.35;;;8.20;92.70;;;;;;5061669;28;20029;-48
2022/02/06 01:19:13;;;;;;;2.38;1.40;;;8.20;92.70;;;;;;5060967;28;20032;-49
2022/02/06 01:21:59;;;;;;;7.07;1.15;;;8.20;92.70;;;;;;5059865;28;20064;-49
2022/02/06 01:24:42;;;;;;;7.53;1.30;;;8.20;92.60;;;;;;5059920;28;20531;-48
2022/02/06 01:27:19;;;;;;;5.55;1.45;;;8.20;92.70;;;;;;5062986;28;20111;-48
2022/02/06 01:29:57;;;;;;;2.30;1.17;;;8.20;92.70;;;;;;5062592;28;20032;-49
2022/02/06 01:32:29;;;;;;;8.57;1.50;;;8.20;92.80;;;;;;5061194;28;20025;-49
2022/02/06 01:35:05;;;;;;;4.03;1.33;;;8.30;92.80;;;;;;5057990;28;20029;-49
2022/02/06 01:37:44;;;;;;;4.57;1.80;;;8.20;92.70;;;;;;5057474;28;20358;-49
2022/02/06 01:40:28;;;;;;;5.25;1.00;;;8.20;92.70;;;;;;5062781;28;20115;-48
2022/02/06 01:43:01;;;;;;;4.43;0.77;;;8.20;92.90;;;;;;5062338;28;20074;-48
2022/02/06 01:46:18;;;;;;;3.88;1.00;;;8.20;92.90;;;;;;5058421;28;20374;-48
2022/02/06 02:03:07;;;;;;;3.60;0.98;;;8.20;92.90;;;;;;5061681;28;20071;-49
2022/02/06 02:07:41;;;;;;;1.95;1.30;;;8.20;92.80;;;;;;5059514;28;20103;-48
2022/02/06 02:31:23;;;;;;;0.28;0.28;;;8.10;92.90;;;;;;5061599;28;20029;-48
2022/02/06 02:47:29;;;;;;;1.02;0.90;;;8.10;93.00;;;;;;5061017;28;20036;-48
2022/02/06 02:49:58;;;;;;;2.53;0.70;;;8.10;93.10;;;;;;5059609;28;20033;-48
2022/02/06 02:57:47;;;;;;;5.03;1.25;;;8.20;93.00;;;;;;5055987;28;20427;-48
2022/02/06 03:02:45;;;;;;;0.80;0.65;;;8.20;93.00;;;;;;5057727;28;20343;-48
2022/02/06 03:05:10;;;;;;;5.18;1.17;;;8.10;93.00;;;;;;5057422;28;20047;-48
2022/02/06 03:07:36;;;;;;;1.67;1.00;;;8.10;93.00;;;;;;5059351;28;20036;-48
2022/02/06 03:10:03;;;;;;;9.13;1.13;;;8.10;93.00;;;;;;5055497;28;20084;-48
2022/02/06 03:12:31;;;;;;;0.73;0.57;;;8.10;93.00;;;;;;5059080;28;20493;-49
2022/02/06 03:15:06;;;;;;;10.70;0.45;;;8.00;93.10;;;;;;5057869;28;20055;-48
2022/02/06 03:17:36;;;;;;;5.72;0.60;;;8.10;93.20;;;;;;5059151;28;20049;-48
2022/02/06 03:20:09;;;;;;;4.15;1.42;;;8.10;93.20;;;;;;5059821;28;20037;-48
2022/02/06 03:22:50;;;;;;;1.30;1.05;;;8.10;93.10;;;;;;5059268;28;20029;-48
2022/02/06 03:25:20;;;;;;;3.03;1.38;;;8.10;93.00;;;;;;5059749;28;20094;-48
2022/02/06 03:27:51;;;;;;;1.85;0.75;;;8.10;93.00;;;;;;5063170;28;20035;-48
2022/02/06 03:30:17;;;;;;;2.92;1.30;;;8.10;93.10;;;;;;5064481;28;20515;-48
2022/02/06 03:32:43;;;;;;;1.67;1.13;;;8.10;93.10;;;;;;5064187;28;20373;-48
2022/02/06 03:35:09;;;;;;;6.32;1.17;;;8.10;93.10;;;;;;5061395;28;20036;-48
2022/02/06 03:37:35;;;;;;;0.50;0.50;;;8.20;93.00;;;;;;5062717;28;20025;-48
2022/02/06 03:40:05;;;;;;;2.95;0.75;;;8.10;93.10;;;;;;5060734;28;20033;-49
2022/02/06 03:42:43;;;;;;;1.57;1.10;;;8.10;93.10;;;;;;5062984;28;20104;-48
2022/02/06 03:45:12;;;;;;;2.15;1.35;;;8.10;93.00;;;;;;5059487;28;20462;-48
2022/02/06 03:48:09;;;;;;;2.88;1.05;;;8.20;93.00;;;;;;5064908;28;20024;-48
2022/02/06 03:50:34;;;;;;;1.92;1.83;;;8.10;93.00;;;;;;5059082;28;20037;-49
2022/02/06 03:53:00;;;;;;;2.17;0.93;;;8.20;93.10;;;;;;5062610;28;20325;-48
2022/02/06 03:55:35;;;;;;;1.40;0.80;;;8.10;93.10;;;;;;5056518;28;20094;-48
2022/02/06 03:58:01;;;;;;;1.52;0.90;;;8.10;93.10;;;;;;5055608;28;20025;-48
2022/02/06 04:00:26;;;;;;;1.55;1.00;;;8.20;93.10;;;;;;5061727;28;20113;-49
2022/02/06 04:02:52;;;;;;;0.73;0.40;;;8.10;93.10;;;;;;5062784;28;20036;-48
2022/02/06 04:05:19;;;;;;;0.98;0.88;;;8.20;93.00;;;;;;5060439;28;20064;-48
2022/02/06 04:07:46;;;;;;;1.85;1.30;;;8.20;93.20;;;;;;5058209;28;20033;-48
2022/02/06 04:10:13;;;;;;;1.85;0.65;;;8.20;93.30;;;;;;5059351;28;20032;-48
2022/02/06 04:12:42;;;;;;;1.65;1.20;;;8.20;93.10;;;;;;5060803;28;20033;-49
2022/02/06 04:15:26;;;;;;;8.25;0.60;;;8.10;93.10;;;;;;5062331;28;20107;-49
2022/02/06 04:18:07;;;;;;;0.93;0.82;;;8.20;93.00;;;;;;5063461;28;20023;-49
2022/02/06 04:20:32;;;;;;;2.85;0.90;;;8.20;93.00;;;;;;5063544;28;20043;-49
2022/02/06 04:22:58;;;;;;;0.68;0.68;;;8.10;93.10;;;;;;5060394;28;20021;-48
2022/02/06 04:25:23;;;;;;;0.38;0.38;;;8.20;93.10;;;;;;5059031;28;20038;-48
2022/02/06 04:27:49;;;;;;;0.20;0.20;;;8.20;93.00;;;;;;5063487;28;20051;-49
2022/02/06 04:30:14;;;;;;;1.00;0.88;;;8.10;93.40;;;;;;5062700;28;20511;-49
2022/02/06 04:32:40;;;;;;;1.55;0.68;;;8.10;93.10;;;;;;5064621;28;20026;-49
2022/02/06 04:35:13;;;;;;;1.00;0.90;;;8.10;93.20;;;;;;5060065;28;20052;-49
2022/02/06 04:37:52;;;;;;;0.80;0.60;;;8.10;93.20;;;;;;5062167;28;20029;-49
2022/02/06 04:40:40;;;;;;;1.30;1.02;;;8.20;93.20;;;;;;5057124;28;20074;-49
2022/02/06 04:43:50;;;;;;;11.40;1.92;;;8.10;93.10;;;;;;5061998;28;20357;-49
2022/02/06 05:15:18;;;;;;;0.63;0.63;;;8.10;93.30;;;;;;5060926;28;20358;-49
2022/02/06 05:33:05;;;;;;;3.65;1.23;;;8.20;93.60;;;;;;5062406;28;20434;-49
2022/02/06 05:35:34;;;;;;;1.05;0.90;;;8.20;93.20;;;;;;5057184;28;20035;-48
2022/02/06 05:38:00;;;;;;;2.80;0.95;;;8.20;93.10;;;;;;5062266;28;20108;-49
2022/02/06 05:40:25;;;;;;;2.38;1.85;;;8.20;93.20;;;;;;5056840;28;20268;-48
2022/02/06 05:42:51;;;;;;;1.05;0.95;;;8.20;93.20;;;;;;5059818;28;20106;-49
2022/02/06 05:45:19;;;;;;;3.90;1.30;;;8.20;93.20;;;;;;5065409;28;20039;-48
2022/02/06 05:47:45;;;;;;;2.17;1.02;;;8.20;93.20;;;;;;5063110;28;20107;-49
2022/02/06 05:50:15;;;;;;;8.90;1.67;;;8.20;93.10;;;;;;5062625;28;20120;-49
2022/02/06 05:52:41;;;;;;;4.10;0.98;;;8.20;93.20;;;;;;5060174;28;20075;-48
2022/02/06 05:55:08;;;;;;;1.48;1.02;;;8.20;93.40;;;;;;5057407;28;20037;-49
2022/02/06 05:57:34;;;;;;;1.38;0.50;;;8.20;93.20;;;;;;5058050;28;20039;-49
2022/02/06 06:00:00;;;;;;;0.50;0.45;;;8.20;93.40;;;;;;5061773;28;20036;-49
2022/02/06 06:02:25;;;;;;;0.82;0.80;;;8.20;93.30;;;;;;5059726;28;20021;-49
2022/02/06 06:04:51;;;;;;;2.05;0.60;;;8.20;93.30;;;;;;5059496;28;20717;-49
2022/02/06 06:07:16;;;;;;;5.25;1.38;;;8.20;93.30;;;;;;5059764;28;20127;-48
2022/02/06 06:09:42;;;;;;;2.90;0.50;;;8.20;93.30;;;;;;5058727;28;20110;-49
2022/02/06 06:12:08;;;;;;;1.45;0.47;;;8.20;93.30;;;;;;5057594;28;20400;-49
2022/02/06 06:14:34;;;;;;;0.85;0.70;;;8.20;93.30;;;;;;5062274;28;20020;-49
2022/02/06 06:17:00;;;;;;;1.13;0.75;;;8.20;93.30;;;;;;5056753;28;20032;-49
2022/02/06 06:19:26;;;;;;;0.75;0.70;;;8.20;93.30;;;;;;5057132;28;20556;-49
2022/02/06 06:21:56;;;;;;;2.00;1.23;;;8.20;93.30;;;;;;5058898;28;20115;-49
2022/02/06 06:24:24;;;;;;;;;;;8.20;93.20;;;;;;5061277;28;20032;-49
2022/02/06 06:26:50;;;;;;;1.27;1.13;;;8.20;93.20;;;;;;5054536;28;19913;-49
2022/02/06 06:29:16;;;;;;;0.60;0.60;;;8.20;93.30;;;;;;5057445;28;20029;-49
2022/02/06 06:31:41;;;;;;;4.13;0.68;;;8.20;93.50;;;;;;5059055;28;20427;-49
2022/02/06 06:34:07;;;;;;;3.72;0.88;;;8.20;93.60;;;;;;5062062;28;20020;-49
2022/02/06 06:36:35;;;;;;;1.98;0.80;;;8.20;93.30;;;;;;5060823;28;20028;-48
2022/02/06 06:39:03;;;;;;;2.03;0.75;;;8.30;93.20;;;;;;5057365;28;20373;-49
2022/02/06 06:41:28;;;;;;;0.70;0.70;;;8.30;93.20;;;;;;5055299;28;20232;-49
2022/02/06 06:43:54;;;;;;;0.47;0.47;;;8.20;93.30;;;;;;5061382;28;20029;-49
2022/02/06 06:46:20;;;;;;;4.00;1.08;;;8.20;93.20;;;;;;5059117;28;20194;-49
2022/02/06 06:48:45;;;;;;;0.70;0.68;;;8.20;93.30;;;;;;5061054;28;20028;-49
2022/02/06 06:51:11;;;;;;;2.88;0.75;;;8.20;93.30;;;;;;5061953;28;20119;-49
2022/02/06 06:53:40;;;;;;;1.75;0.65;;;8.20;93.20;;;;;;5058880;28;20466;-49
2022/02/06 06:56:13;;;;;;;0.88;0.68;;;8.30;93.20;;;;;;5055909;28;20166;-49
2022/02/06 06:58:49;;;;;;;0.30;0.30;;;8.20;93.20;;;;;;5061626;28;20370;-49
2022/02/06 07:03:49;;;;;;;1.20;0.43;;;8.30;93.30;;;;;;5063587;28;20024;-49
2022/02/06 07:06:14;;;;;;;0.63;0.60;;;8.30;93.30;;;;;;5061628;28;20037;-49
2022/02/06 07:08:40;;;;;;;1.85;1.10;;;8.30;93.10;;;;;;5064616;28;20064;-49
2022/02/06 07:11:06;;;;;;;1.95;1.00;;;8.20;93.20;;;;;;5058083;28;20033;-49
2022/02/06 07:13:31;;;;;;;0.50;0.50;;;8.20;93.40;;;;;;5064593;28;20268;-49
2022/02/06 07:15:57;;;;;;;2.45;0.93;;;8.20;93.20;;;;;;5065008;28;20024;-49
2022/02/06 07:18:23;;;;;;;5.57;0.47;;;8.20;93.30;;;;;;5063039;28;20025;-49
2022/02/06 07:20:49;;;;;;;1.02;0.70;;;8.30;93.30;;;;;;5064050;28;20324;-49
2022/02/06 07:23:14;;;;;;;5.68;1.00;;;8.30;93.20;;;;;;5063653;28;20024;-49
2022/02/06 07:25:44;;;;;;;0.50;0.50;;;8.20;93.30;;;;;;5059379;28;20037;-49
2022/02/06 07:28:15;;;;;;;2.15;0.98;;;8.20;93.20;;;;;;5061690;28;20096;-49
2022/02/06 07:30:43;;;;;;;0.75;0.75;;;8.20;93.40;;;;;;5063144;28;20123;-49
2022/02/06 07:33:11;;;;;;;3.38;1.15;;;8.20;93.40;;;;;;5060663;28;20037;-49
2022/02/06 07:35:37;;;;;;;3.03;0.35;;;8.20;93.20;;;;;;5062622;28;20029;-49
2022/02/06 07:38:02;;;;;;;1.55;0.40;;;8.30;93.20;;;;;;5063712;28;20075;-49
2022/02/06 07:40:28;;;;;;;0.40;0.40;;;8.30;93.30;;;;;;5062310;28;20028;-49
2022/02/06 07:42:54;;;;;;;0.52;0.52;;;8.30;93.20;;;;;;5056558;28;20051;-49
2022/02/06 07:45:20;;;;;;;2.95;0.60;;;8.30;93.20;;;;;;5063188;28;20029;-49
2022/02/06 07:47:47;;;;;;;2.65;0.73;;;8.30;93.20;;;;;;5065254;28;20028;-49
2022/02/06 07:50:14;;;;;;;0.32;0.32;;;8.20;93.10;;;;;;5063285;28;20392;-49
2022/02/06 07:52:41;;;;;;;0.75;0.60;;;8.20;93.00;;;;;;5063693;28;20025;-49
2022/02/06 07:55:08;;;;;;;0.57;0.40;;;8.30;93.00;;;;;;5061265;28;20099;-49
2022/02/06 07:57:35;;;;;;;1.35;0.55;;;8.30;93.10;;;;;;5059905;28;20053;-49
2022/02/06 08:00:02;;;;;;;1.27;0.90;;;8.30;93.00;;;;;;5063614;28;20033;-49
2022/02/06 08:02:28;;;;;;;0.32;0.32;;;8.30;93.10;;;;;;5062100;28;20016;-49
2022/02/06 08:04:53;;;;;;;0.50;0.50;;;8.30;93.20;;;;;;5055668;28;20187;-49
2022/02/06 08:07:19;;;;;;;0.30;0.30;;;8.30;93.00;;;;;;5063867;28;20024;-49
2022/02/06 08:09:52;;;;;;;0.65;0.38;;;8.30;92.90;;;;;;5063503;28;20025;-49
2022/02/06 08:12:27;;;;;;;0.82;0.75;;;8.30;92.90;;;;;;5057589;28;20051;-49
2022/02/06 08:14:56;;;;;;;0.63;0.40;;;8.30;92.90;;;;;;5060580;28;20044;-49
2022/02/06 08:17:22;;;;;;;1.60;0.90;;;8.30;93.00;;;;;;5063329;28;20205;-49
2022/02/06 08:19:48;;;;;;;0.50;0.50;;;8.30;93.10;;;;;;5063940;28;20469;-49
2022/02/06 08:22:15;;;;;;;0.40;0.40;;;8.30;92.90;;;;;;5061277;28;20465;-49
2022/02/06 08:24:41;;;;;;;0.68;0.68;;;8.30;92.80;;;;;;5058337;28;20447;-49
2022/02/06 08:27:06;;;;;;;0.57;0.57;;;8.30;93.00;;;;;;5053858;28;20410;-49
2022/02/06 08:29:33;;;;;;;3.70;0.98;;;8.30;92.90;;;;;;5063209;28;20131;-49
2022/02/06 08:31:59;;;;;;;0.45;0.45;;;8.30;92.70;;;;;;5064358;28;20045;-49
2022/02/06 08:34:25;;;;;;;9.07;1.40;;;8.30;92.80;;;;;;5063603;28;20029;-49
2022/02/06 08:36:50;;;;;;;0.40;0.40;;;8.30;92.80;;;;;;5069108;28;21043;-49
2022/02/06 08:39:16;;;;;;;1.25;0.95;;;8.30;92.70;;;;;;5064403;28;20020;-49
2022/02/06 08:41:42;;;;;;;0.90;0.40;;;8.30;92.70;;;;;;5064058;28;20036;-49
2022/02/06 08:44:07;;;;;;;0.30;0.30;;;8.30;92.80;;;;;;5065274;28;20025;-49
2022/02/06 08:46:33;;;;;;;0.60;0.60;;;8.30;92.70;;;;;;5067004;28;20446;-49
2022/02/06 08:48:58;;;;;;;0.30;0.30;;;8.30;92.60;;;;;;5056559;28;20031;-49
2022/02/06 08:51:24;;;;;;;0.60;0.60;;;8.30;92.80;;;;;;5060712;28;20032;-49
2022/02/06 08:53:53;;;;;;;1.40;0.90;;;8.30;92.70;;;;;;5059063;28;20040;-49
2022/02/06 08:56:19;;;;;;;1.13;0.68;;;8.30;92.90;;;;;;5059612;28;20071;-49
2022/02/06 08:58:44;;;;;;;0.77;0.57;;;8.30;92.90;;;;;;5066328;28;20040;-49
2022/02/06 09:01:10;;;;;;;0.50;0.50;;;8.30;92.80;;;;;;5059490;28;20025;-49
2022/02/06 09:03:35;;;;;;;0.30;0.30;;;8.30;92.70;;;;;;5067068;28;20017;-49
2022/02/06 09:06:01;;;;;;;1.45;1.17;;;8.40;92.70;;;;;;5065174;28;20036;-49
2022/02/06 09:08:27;;;;;;;3.63;1.05;;;8.40;92.70;;;;;;5066597;28;20025;-49
2022/02/06 09:10:52;;;;;;;2.53;0.68;;;8.40;92.90;;;;;;5063517;28;20033;-49
2022/02/06 09:13:19;;;;;;;0.20;0.20;;;8.30;92.70;;;;;;5064332;28;20035;-49
2022/02/06 09:15:45;;;;;;;0.57;0.45;;;8.40;93.00;;;;;;5059566;28;20052;-49
2022/02/06 09:18:10;;;;;;;0.40;0.40;;;8.40;92.70;;;;;;5057309;28;20033;-49
2022/02/06 09:20:36;;;;;;;0.30;0.30;;;8.40;92.90;;;;;;5061885;28;20024;-49
2022/02/06 09:23:02;;;;;;;7.80;0.95;;;8.40;92.70;;;;;;5060331;28;20045;-49
2022/02/06 09:25:28;;;;;;;4.55;1.95;;;8.40;92.70;;;;;;5058761;28;20040;-49
2022/02/06 09:27:54;;;;;;;0.40;0.40;;;8.40;92.70;;;;;;5054901;28;20025;-49
2022/02/06 09:30:25;;;;;;;0.75;0.60;;;8.40;92.70;;;;;;5060709;28;20025;-49
2022/02/06 09:35:18;;;;;;;0.40;0.40;;;8.40;92.70;;;;;;5063013;28;20029;-49
2022/02/06 09:37:44;;;;;;;0.85;0.60;;;8.40;92.60;;;;;;5060571;28;20031;-49
2022/02/06 09:40:13;;;;;;;0.60;0.60;;;8.40;92.70;;;;;;5069787;28;20358;-49
2022/02/06 09:42:42;;;;;;;4.90;0.43;;;8.40;92.50;;;;;;5064665;28;20024;-49
2022/02/06 09:45:11;;;;;;;1.08;0.68;;;8.40;92.70;;;;;;5071517;28;20028;-49
2022/02/06 09:47:37;;;;;;;5.72;1.33;;;8.40;92.70;;;;;;5073821;28;20038;-49
2022/02/06 09:50:04;;;;;;;2.60;1.13;;;8.40;92.70;;;;;;5077822;28;20093;-49
2022/02/06 09:52:30;;;;;;;0.90;0.70;;;8.40;92.70;;;;;;5074528;28;20031;-49
2022/02/06 09:55:04;;;;;;;0.30;0.30;;;8.40;92.70;;;;;;5072377;28;20025;-49
2022/02/06 09:57:31;;;;;;;3.22;1.08;;;8.40;92.50;;;;;;5063732;28;20527;-49
2022/02/06 09:59:58;;;;;;;2.05;0.70;;;8.40;92.50;;;;;;5068715;28;20090;-49
2022/02/06 10:02:27;;;;;;;4.40;0.98;;;8.40;92.60;;;;;;5068223;28;20103;-49
2022/02/06 10:04:54;;;;;;;1.38;0.47;;;8.50;92.60;;;;;;5067772;28;20044;-49
2022/02/06 10:07:28;;;;;;;1.55;0.68;;;8.50;92.70;;;;;;5070816;28;20025;-49
2022/02/06 10:10:04;;;;;;;1.58;0.50;;;8.50;92.90;;;;;;5072906;28;20065;-49
2022/02/06 10:12:44;;;;;;;0.80;0.80;;;8.50;92.70;;;;;;5058151;28;20033;-49
2022/02/06 10:15:15;;;;;;;1.38;0.40;;;8.50;92.50;;;;;;5067060;28;20047;-49
2022/02/06 10:17:41;;;;;;;2.05;0.70;;;8.50;92.60;;;;;;5078317;28;20024;-49
2022/02/06 10:20:13;;;;;;;0.52;0.52;;;8.50;92.70;;;;;;5070676;28;20025;-49
2022/02/06 10:22:47;;;;;;;4.80;0.77;;;8.50;92.60;;;;;;5069911;28;20115;-49
2022/02/06 10:25:12;;;;;;;1.20;0.88;;;8.50;92.60;;;;;;5067261;28;20040;-49
2022/02/06 10:28:04;;;;;;;0.55;0.55;;;8.50;92.70;;;;;;5073528;28;20440;-49
2022/02/06 10:30:50;;;;;;;4.28;1.10;;;8.50;92.60;;;;;;5072784;28;20115;-49
2022/02/06 10:33:23;;;;;;;1.05;0.70;;;8.50;92.80;;;;;;5063306;28;20454;-49
2022/02/06 10:35:55;;;;;;;0.50;0.50;;;8.60;92.70;;;;;;5063132;28;20342;-49
2022/02/06 10:38:24;;;;;;;0.75;0.68;;;8.50;92.60;;;;;;5066437;28;20342;-49
2022/02/06 10:41:11;;;;;;;1.55;0.63;;;8.60;92.80;;;;;;5067318;28;20506;-49
2022/02/06 10:43:58;;;;;;;0.55;0.55;;;8.60;92.60;;;;;;5070162;28;20031;-49
2022/02/06 10:46:26;;;;;;;5.07;0.60;;;8.60;92.60;;;;;;5079125;28;20044;-49
2022/02/06 10:48:55;;;;;;;1.42;0.95;;;8.60;92.60;;;;;;5071660;28;20032;-49
2022/02/06 10:51:52;;;;;;;0.30;0.30;;;8.50;92.70;;;;;;5066972;28;20035;-49
2022/02/06 10:54:38;;;;;;;0.47;0.47;;;8.60;92.60;;;;;;5062271;28;20025;-49
2022/02/06 10:57:15;;;;;;;0.38;0.38;;;8.60;92.70;;;;;;5068595;28;20103;-49
2022/02/06 10:59:46;;;;;;;4.22;1.05;;;8.60;92.60;;;;;;5073622;28;20404;-49
2022/02/06 11:02:46;;;;;;;1.85;0.50;;;8.60;92.70;;;;;;5063793;28;20361;-49
2022/02/06 11:05:20;;;;;;;0.40;0.40;;;8.50;92.70;;;;;;5068159;28;20785;-50
2022/02/06 11:07:56;;;;;;;0.40;0.40;;;8.60;91.90;;;;;;5071831;28;20056;-49
2022/02/06 11:10:24;;;;;;;0.30;0.30;;;8.50;90.30;;;;;;5069690;28;20024;-50
2022/02/06 11:12:54;;;;;;;0.73;0.73;;;8.40;90.10;;;;;;5064497;28;20478;-48
2022/02/06 11:15:30;;;;;;;0.40;0.40;;;8.40;90.60;;;;;;5069520;28;20044;-48
2022/02/06 11:18:25;;;;;;;1.77;1.02;;;8.40;91.10;;;;;;5069833;28;20397;-48
2022/02/06 11:21:03;;;;;;;2.17;0.75;;;8.40;91.00;;;;;;5070771;28;20086;-48
2022/02/06 11:23:37;;;;;;;1.00;0.77;;;8.40;91.10;;;;;;5072476;28;20102;-48
2022/02/06 11:26:13;;;;;;;2.75;0.98;;;8.50;91.20;;;;;;5070149;28;20127;-48
2022/02/06 11:28:40;;;;;;;0.55;0.55;;;8.50;91.20;;;;;;5061507;28;20021;-48
2022/02/06 11:31:06;;;;;;;0.20;0.20;;;8.50;91.40;;;;;;5066423;28;20366;-48
2022/02/06 11:33:33;;;;;;;0.73;0.73;;;8.50;91.60;;;;;;5071002;28;20016;-48
2022/02/06 11:36:03;;;;;;;1.35;0.85;;;8.50;91.50;;;;;;5071207;28;20020;-48
2022/02/06 11:45:09;;;;;;;1.23;0.52;;;8.50;91.70;;;;;;5068598;28;20043;-48
2022/02/06 11:47:43;;;;;;;0.30;0.30;;;8.50;91.70;;;;;;5065092;28;20040;-48
2022/02/06 11:50:11;;;;;;;1.48;0.40;;;8.50;91.70;;;;;;5073571;28;20054;-48
2022/02/06 11:52:50;;;;;;;18.02;0.75;;;8.50;91.90;;;;;;5068916;28;20416;-48
2022/02/06 11:55:45;;;;;;;6.82;0.70;;;8.60;91.80;;;;;;5070510;28;20028;-48
2022/02/06 11:58:31;;;;;;;3.92;1.08;;;8.50;91.80;;;;;;5065975;28;20052;-48
2022/02/06 12:01:06;;;;;;;1.00;0.50;;;8.50;91.90;;;;;;5070985;28;20399;-48
2022/02/06 12:03:52;;;;;;;0.98;0.38;;;8.50;91.90;;;;;;5069900;28;20419;-48
2022/02/06 12:06:19;;;;;;;1.30;0.73;;;8.60;91.90;;;;;;5073298;28;20048;-48
2022/02/06 12:09:05;;;;;;;2.63;0.60;;;8.60;92.20;;;;;;5071191;28;20481;-48
2022/02/06 12:11:32;;;;;;;0.50;0.50;;;8.50;92.40;;;;;;5060937;28;20037;-48
2022/02/06 12:14:20;;;;;;;1.73;1.15;;;8.60;92.20;;;;;;5067965;28;20062;-48
2022/02/06 12:17:19;;;;;;;1.75;0.88;;;8.60;92.00;;;;;;5070543;28;20126;-48
2022/02/06 12:20:19;;;;;;;0.40;0.40;;;8.60;92.20;;;;;;5066719;28;20056;-48
2022/02/06 12:22:49;;;;;;;0.35;0.35;;;8.60;92.30;;;;;;5068871;28;20029;-48
2022/02/06 12:25:37;;;;;;;0.40;0.40;;;8.60;92.30;;;;;;5074955;28;20041;-48
2022/02/06 12:28:16;;;;;;;0.30;0.30;;;8.60;92.30;;;;;;5071144;28;20537;-48
2022/02/06 12:30:44;;;;;;;0.30;0.30;;;8.60;92.30;;;;;;5072707;28;20048;-48
2022/02/06 12:33:42;;;;;;;5.55;0.70;;;8.60;92.40;;;;;;5071291;28;20271;-48
2022/02/06 12:38:52;;;;;;;0.95;0.60;;;8.60;92.30;;;;;;5073878;28;20039;-48
2022/02/06 12:41:29;;;;;;;1.00;0.40;;;8.60;92.30;;;;;;5069813;28;20033;-48
2022/02/06 12:44:01;;;;;;;8.38;1.02;;;8.60;92.30;;;;;;5072154;28;20016;-48
2022/02/06 12:46:28;;;;;;;0.35;0.35;;;8.60;92.40;;;;;;5075226;28;20049;-49
2022/02/06 12:48:59;;;;;;;2.17;0.40;;;8.60;92.50;;;;;;5072040;28;20021;-48
2022/02/06 12:51:27;;;;;;;0.50;0.50;;;8.60;92.40;;;;;;5069528;28;20029;-48
2022/02/06 12:54:10;;;;;;;0.68;0.68;;;8.60;92.40;;;;;;5075732;28;20063;-48
2022/02/06 12:56:37;;;;;;;0.52;0.52;;;8.60;92.60;;;;;;5076004;28;20031;-48
2022/02/06 12:59:04;;;;;;;0.43;0.43;;;8.60;92.50;;;;;;5072774;28;20037;-48
2022/02/06 13:01:39;;;;;;;0.25;0.25;;;8.60;92.40;;;;;;5071032;28;20031;-48
2022/02/06 13:04:08;;;;;;;0.50;0.50;;;8.70;92.50;;;;;;5070797;28;20031;-49
2022/02/06 13:06:38;;;;;;;0.30;0.30;;;8.70;92.70;;;;;;5074264;28;20040;-48
2022/02/06 13:09:06;;;;;;;0.30;0.30;;;8.70;92.40;;;;;;5070720;28;20116;-48
2022/02/06 13:11:42;;;;;;;1.02;0.75;;;8.60;92.50;;;;;;5074061;28;20465;-48
2022/02/06 13:14:26;;;;;;;0.85;0.60;;;8.70;92.50;;;;;;5071617;28;20017;-48
2022/02/06 13:17:21;;;;;;;2.47;0.90;;;8.70;92.50;;;;;;5079379;28;20064;-48
2022/02/06 13:22:54;;;;;;;3.92;0.57;;;8.70;92.60;;;;;;5073905;28;20391;-48
2022/02/06 13:25:53;;;;;;;0.63;0.63;;;8.70;92.40;;;;;;5073477;28;20036;-48
2022/02/06 13:33:30;;;;;;;1.35;0.40;;;8.70;92.50;;;;;;5066652;28;20374;-48
2022/02/06 13:38:41;;;;;;;5.18;0.40;;;8.70;92.60;;;;;;5072088;28;20028;-48
2022/02/06 13:41:17;;;;;;;0.50;0.50;;;8.70;92.40;;;;;;5071492;28;20086;-48
2022/02/06 13:43:43;;;;;;;2.10;0.82;;;8.70;92.50;;;;;;5068626;28;20040;-48
2022/02/06 13:46:22;;;;;;;1.38;0.43;;;8.70;92.60;;;;;;5070259;28;20037;-48
2022/02/06 13:48:49;;;;;;;1.05;0.43;;;8.70;92.50;;;;;;5076477;28;20029;-48
2022/02/06 13:51:16;;;;;;;0.57;0.57;;;8.70;92.50;;;;;;5070073;28;20024;-48
2022/02/06 13:54:00;;;;;;;0.30;0.30;;;8.70;92.30;;;;;;5065889;28;20078;-48
2022/02/06 13:56:28;;;;;;;1.55;0.98;;;8.70;92.60;;;;;;5071072;28;20031;-48
2022/02/06 13:59:03;;;;;;;5.38;0.50;;;8.70;92.50;;;;;;5071030;28;20044;-48
2022/02/06 14:01:51;;;;;;;0.22;0.22;;;8.70;92.40;;;;;;5068677;28;20024;-48
2022/02/06 14:04:28;;;;;;;0.57;0.52;;;8.70;92.50;;;;;;5071252;28;20143;-49
2022/02/06 14:07:14;;;;;;;1.75;0.82;;;8.70;92.60;;;;;;5070272;28;20032;-48
2022/02/06 14:12:08;;;;;;;0.30;0.30;;;8.70;92.60;;;;;;5067849;28;20039;-48
2022/02/06 14:14:35;;;;;;;0.25;0.25;;;8.70;92.50;;;;;;5065021;28;20028;-48
2022/02/06 14:17:04;;;;;;;0.70;0.40;;;8.70;92.50;;;;;;5076252;28;20056;-48
2022/02/06 14:19:34;;;;;;;0.40;0.40;;;8.70;92.70;;;;;;5075865;28;20354;-48
2022/02/06 14:22:01;;;;;;;0.50;0.50;;;8.70;92.50;;;;;;5068763;28;20023;-48
2022/02/06 14:24:27;;;;;;;0.30;0.30;;;8.70;92.50;;;;;;5070731;28;20032;-48
2022/02/06 14:27:04;;;;;;;0.63;0.63;;;8.70;92.60;;;;;;5075723;28;20032;-48
2022/02/06 14:29:32;;;;;;;1.10;0.70;;;8.70;92.60;;;;;;5067084;28;20362;-48
2022/02/06 14:32:14;;;;;;;0.30;0.30;;;8.70;92.60;;;;;;5069550;28;20142;-48
2022/02/06 14:34:40;;;;;;;3.30;0.40;;;8.70;92.70;;;;;;5068203;28;20032;-48
2022/02/06 14:37:12;;;;;;;0.98;0.52;;;8.70;92.60;;;;;;5074394;28;20354;-48
2022/02/06 14:40:14;;;;;;;0.73;0.50;;;8.70;92.80;;;;;;5066680;28;20031;-48
2022/02/06 14:42:57;;;;;;;0.40;0.40;;;8.70;92.60;;;;;;5063346;28;20481;-48
2022/02/06 14:45:23;;;;;;;1.17;0.28;;;8.70;92.50;;;;;;5064430;28;20040;-48
2022/02/06 14:47:49;;;;;;;0.30;0.30;;;8.70;92.50;;;;;;5078029;28;20047;-48
2022/02/06 14:50:18;;;;;;;0.40;0.40;;;8.70;93.00;;;;;;5069942;28;20075;-48
2022/02/06 14:52:45;;;;;;;0.40;0.40;;;8.70;92.60;;;;;;5064566;28;20051;-48
2022/02/06 14:55:12;;;;;;;0.55;0.43;;;8.70;92.70;;;;;;5074891;28;20380;-48
2022/02/06 14:57:38;;;;;;;0.52;0.50;;;8.80;92.60;;;;;;5070158;28;20103;-49
2022/02/06 15:00:07;;;;;;;0.30;0.30;;;8.70;92.80;;;;;;5068635;28;20334;-48
2022/02/06 15:02:33;;;;;;;0.28;0.28;;;8.70;92.70;;;;;;5062250;28;20032;-48
2022/02/06 15:04:58;;;;;;;0.30;0.30;;;8.70;92.70;;;;;;5066312;28;20029;-48
2022/02/06 15:07:26;;;;;;;0.30;0.30;;;8.70;92.70;;;;;;5071732;28;20056;-48
2022/02/06 15:09:52;;;;;;;0.40;0.40;;;8.70;92.70;;;;;;5073980;28;20037;-48
2022/02/06 15:12:18;;;;;;;1.55;0.40;;;8.70;92.70;;;;;;5070583;28;20406;-48
2022/02/06 15:14:44;;;;;;;0.30;0.30;;;8.70;92.70;;;;;;5067474;28;20104;-48
2022/02/06 15:17:11;;;;;;;0.60;0.60;;;8.80;93.00;;;;;;5069884;28;20017;-48
2022/02/06 15:19:37;;;;;;;0.75;0.63;;;8.70;92.80;;;;;;5073546;28;20023;-48
2022/02/06 15:22:03;;;;;;;0.30;0.30;;;8.70;92.80;;;;;;5071242;28;20040;-48
2022/02/06 15:24:29;;;;;;;2.85;0.60;;;8.70;92.80;;;;;;5075438;28;20417;-48
2022/02/06 15:26:55;;;;;;;0.50;0.50;;;8.70;93.00;;;;;;5078695;28;20024;-48
2022/02/06 15:29:21;;;;;;;0.30;0.30;;;8.80;92.80;;;;;;5071640;28;20089;-48
2022/02/06 15:31:47;;;;;;;0.43;0.40;;;8.70;92.90;;;;;;5070316;28;20457;-48
2022/02/06 15:34:13;;;;;;;0.70;0.70;;;8.70;92.80;;;;;;5071659;28;20469;-48
2022/02/06 15:36:40;;;;;;;0.20;0.20;;;8.70;92.80;;;;;;5068962;28;20070;-48